createdAt,value
2022-07-27T00:01:04.836Z,17.20
2022-07-27T00:03:31.495Z,17.00
2022-07-27T00:05:58.141Z,17.00
2022-07-27T00:08:24.797Z,17.00
2022-07-27T00:10:51.670Z,17.10
2022-07-27T00:13:18.346Z,16.90
2022-07-27T00:15:45.038Z,16.90
2022-07-27T00:18:11.674Z,16.90
2022-07-27T00:20:39.813Z,16.90
2022-07-27T00:23:06.431Z,16.80
2022-07-27T00:25:33.111Z,16.90
2022-07-27T00:27:59.738Z,16.90
2022-07-27T00:30:26.547Z,16.90
2022-07-27T00:32:53.221Z,16.90
2022-07-27T00:35:19.936Z,16.80
2022-07-27T00:37:46.553Z,16.70
2022-07-27T00:40:13.234Z,16.60
2022-07-27T00:42:39.889Z,16.70
2022-07-27T00:45:07.097Z,16.60
2022-07-27T00:47:33.870Z,16.60
2022-07-27T00:50:00.533Z,16.60
2022-07-27T00:52:28.051Z,16.50
2022-07-27T00:54:54.685Z,16.50
2022-07-27T00:57:21.309Z,16.60
2022-07-27T00:59:47.928Z,16.50
2022-07-27T01:02:19.552Z,16.60
2022-07-27T01:04:47.352Z,16.60
2022-07-27T01:07:14.687Z,16.60
2022-07-27T01:09:59.891Z,16.60
2022-07-27T01:12:31.253Z,16.60
2022-07-27T01:14:58.493Z,16.60
2022-07-27T01:17:25.885Z,16.70
2022-07-27T01:19:52.717Z,16.70
2022-07-27T01:22:19.398Z,16.80
2022-07-27T01:24:46.150Z,16.80
2022-07-27T01:27:12.770Z,16.70
2022-07-27T01:29:40.255Z,16.70
2022-07-27T01:32:07.233Z,16.70
2022-07-27T01:34:33.900Z,16.70
2022-07-27T01:37:01.527Z,16.60
2022-07-27T01:39:28.405Z,16.60
2022-07-27T01:41:55.036Z,16.60
2022-07-27T01:44:21.659Z,16.60
2022-07-27T01:46:48.338Z,16.50
2022-07-27T01:49:15.527Z,16.60
2022-07-27T01:51:42.750Z,16.60
2022-07-27T01:54:09.369Z,16.50
2022-07-27T01:56:35.998Z,16.50
2022-07-27T01:59:02.642Z,16.50
2022-07-27T02:01:29.360Z,16.40
2022-07-27T02:03:56.019Z,16.50
2022-07-27T02:06:22.700Z,16.40
2022-07-27T02:08:49.328Z,16.50
2022-07-27T02:11:34.408Z,16.40
2022-07-27T02:14:01.042Z,16.50
2022-07-27T02:16:27.716Z,16.40
2022-07-27T02:18:55.206Z,16.40
2022-07-27T02:21:21.848Z,16.30
2022-07-27T02:23:48.546Z,16.40
2022-07-27T02:26:15.221Z,16.40
2022-07-27T02:28:42.030Z,16.30
2022-07-27T02:31:08.813Z,16.30
2022-07-27T02:33:35.502Z,16.30
2022-07-27T02:36:02.180Z,16.30
2022-07-27T02:38:28.878Z,16.40
2022-07-27T02:40:55.528Z,16.30
2022-07-27T02:43:22.224Z,16.30
2022-07-27T02:45:50.042Z,16.30
2022-07-27T02:48:16.733Z,16.30
2022-07-27T02:50:43.429Z,16.20
2022-07-27T02:53:10.072Z,16.20
2022-07-27T02:55:36.705Z,16.20
2022-07-27T02:58:03.386Z,16.20
2022-07-27T03:00:30.095Z,16.30
2022-07-27T03:02:56.754Z,16.30
2022-07-27T03:05:23.387Z,16.10
2022-07-27T03:07:49.999Z,16.20
2022-07-27T03:10:16.659Z,16.10
2022-07-27T03:12:44.068Z,16.20
2022-07-27T03:15:11.125Z,16.20
2022-07-27T03:17:37.775Z,16.20
2022-07-27T03:20:04.770Z,16.10
2022-07-27T03:22:34.669Z,16.00
2022-07-27T03:25:01.370Z,16.00
2022-07-27T03:27:29.056Z,16.10
2022-07-27T03:29:56.245Z,16.10
2022-07-27T03:32:22.865Z,16.00
2022-07-27T03:34:49.513Z,16.00
2022-07-27T03:37:17.178Z,16.10
2022-07-27T03:39:43.820Z,15.90
2022-07-27T03:42:10.640Z,15.90
2022-07-27T03:44:37.388Z,15.90
2022-07-27T03:47:04.104Z,15.80
2022-07-27T03:49:30.863Z,15.70
2022-07-27T03:51:57.592Z,15.60
2022-07-27T03:54:24.216Z,15.60
2022-07-27T03:56:50.891Z,15.60
2022-07-27T03:59:17.508Z,15.70
2022-07-27T04:01:44.248Z,15.60
2022-07-27T04:04:10.953Z,15.50
2022-07-27T04:06:37.563Z,15.70
2022-07-27T04:09:08.841Z,15.60
2022-07-27T04:11:37.666Z,15.70
2022-07-27T04:14:10.981Z,15.70
2022-07-27T04:16:39.694Z,15.90
2022-07-27T04:19:06.420Z,16.00
2022-07-27T04:21:34.537Z,16.00
2022-07-27T04:24:02.087Z,16.10
2022-07-27T04:26:28.845Z,16.10
2022-07-27T04:28:55.641Z,16.40
2022-07-27T04:31:23.194Z,16.20
2022-07-27T04:33:49.928Z,16.20
2022-07-27T04:36:16.621Z,16.30
2022-07-27T04:38:43.253Z,16.10
2022-07-27T04:41:09.869Z,16.20
2022-07-27T04:43:36.487Z,16.10
2022-07-27T04:46:04.556Z,16.00
2022-07-27T04:48:34.713Z,16.00
2022-07-27T04:51:01.558Z,16.10
2022-07-27T04:53:28.218Z,16.30
2022-07-27T04:55:54.849Z,16.30
2022-07-27T04:58:24.508Z,16.50
2022-07-27T05:00:51.839Z,16.50
2022-07-27T05:03:18.541Z,16.60
2022-07-27T05:05:50.051Z,16.50
2022-07-27T05:08:17.833Z,16.60
2022-07-27T05:10:44.464Z,16.50
2022-07-27T05:13:11.145Z,16.50
2022-07-27T05:15:54.694Z,16.40
2022-07-27T05:18:22.436Z,16.30
2022-07-27T05:20:49.326Z,16.30
2022-07-27T05:23:17.524Z,16.40
2022-07-27T05:25:44.269Z,16.40
2022-07-27T05:28:14.066Z,16.60
2022-07-27T05:30:40.849Z,16.70
2022-07-27T05:33:07.440Z,16.80
2022-07-27T05:35:34.097Z,16.90
2022-07-27T05:38:00.750Z,17.00
2022-07-27T05:40:27.532Z,16.90
2022-07-27T05:42:54.163Z,16.90
2022-07-27T05:45:20.814Z,16.90
2022-07-27T05:47:47.451Z,16.90
2022-07-27T05:50:14.712Z,17.00
2022-07-27T05:52:41.586Z,17.00
2022-07-27T05:55:08.598Z,17.10
2022-07-27T05:57:35.545Z,17.10
2022-07-27T06:00:02.794Z,17.10
2022-07-27T06:02:31.496Z,17.00
2022-07-27T06:04:58.225Z,17.10
2022-07-27T06:07:43.306Z,17.00
2022-07-27T06:10:11.470Z,17.20
2022-07-27T06:12:39.738Z,17.30
2022-07-27T06:15:07.614Z,17.40
2022-07-27T06:17:34.324Z,17.40
2022-07-27T06:20:00.961Z,17.60
2022-07-27T06:22:27.583Z,17.80
2022-07-27T06:24:54.273Z,17.90
2022-07-27T06:27:20.940Z,18.10
2022-07-27T06:29:47.592Z,18.10
2022-07-27T06:32:14.195Z,18.10
2022-07-27T06:34:43.292Z,18.10
2022-07-27T06:37:09.991Z,18.00
2022-07-27T06:39:36.661Z,17.90
2022-07-27T06:42:03.460Z,18.20
2022-07-27T06:44:30.097Z,18.20
2022-07-27T06:46:56.756Z,18.60
2022-07-27T06:49:23.536Z,18.90
2022-07-27T06:51:50.186Z,18.90
2022-07-27T06:54:16.855Z,19.20
2022-07-27T06:56:43.891Z,19.50
2022-07-27T06:59:10.787Z,20.00
2022-07-27T07:01:37.623Z,20.80
2022-07-27T07:04:04.541Z,21.30
2022-07-27T07:06:31.254Z,21.50
2022-07-27T07:08:57.892Z,21.10
2022-07-27T07:11:24.539Z,21.50
2022-07-27T07:13:51.179Z,21.90
2022-07-27T07:16:17.930Z,21.60
2022-07-27T07:18:48.900Z,22.00
2022-07-27T07:21:18.518Z,22.00
2022-07-27T07:23:45.829Z,22.00
2022-07-27T07:26:12.593Z,21.90
2022-07-27T07:28:39.328Z,22.00
2022-07-27T07:31:06.075Z,22.30
2022-07-27T07:33:32.761Z,22.90
2022-07-27T07:36:12.431Z,23.60
2022-07-27T07:38:41.540Z,23.80
2022-07-27T07:41:08.510Z,23.00
2022-07-27T07:43:36.644Z,22.50
2022-07-27T07:46:03.581Z,22.80
2022-07-27T07:48:30.444Z,23.50
2022-07-27T07:50:57.095Z,24.20
2022-07-27T07:53:23.761Z,24.40
2022-07-27T07:55:51.512Z,25.00
2022-07-27T07:58:18.408Z,24.40
2022-07-27T08:00:45.033Z,24.60
2022-07-27T08:03:11.670Z,25.90
2022-07-27T08:05:38.389Z,26.50
2022-07-27T08:08:05.216Z,27.20
2022-07-27T08:10:32.058Z,26.60
2022-07-27T08:12:58.802Z,25.90
2022-07-27T08:15:29.985Z,26.20
2022-07-27T08:18:02.378Z,26.30
2022-07-27T08:20:29.224Z,26.50
2022-07-27T08:22:55.864Z,26.30
2022-07-27T08:25:22.495Z,25.10
2022-07-27T08:27:49.114Z,24.30
2022-07-27T08:30:15.726Z,24.10
2022-07-27T08:32:50.349Z,24.90
2022-07-27T08:35:18.653Z,25.70
2022-07-27T08:37:45.465Z,25.40
2022-07-27T08:40:39.538Z,26.10
2022-07-27T08:43:00.889Z,26.20
2022-07-27T08:45:27.659Z,25.00
2022-07-27T08:47:54.298Z,24.20
2022-07-27T08:50:24.013Z,24.80
2022-07-27T08:53:04.871Z,25.10
2022-07-27T08:55:32.825Z,25.00
2022-07-27T08:58:03.171Z,24.80
2022-07-27T09:00:30.851Z,24.70
2022-07-27T09:02:57.730Z,25.10
2022-07-27T09:05:24.601Z,25.40
2022-07-27T09:07:51.226Z,24.30
2022-07-27T09:10:34.562Z,23.40
2022-07-27T09:13:15.872Z,22.80
2022-07-27T09:16:15.852Z,22.70
2022-07-27T09:18:37.381Z,22.60
2022-07-27T09:21:20.817Z,23.40
2022-07-27T09:23:55.440Z,24.40
2022-07-27T09:26:34.623Z,25.70
2022-07-27T09:29:05.869Z,27.40
2022-07-27T09:31:33.373Z,28.50
2022-07-27T09:34:01.844Z,29.70
2022-07-27T09:36:29.151Z,28.90
2022-07-27T09:39:05.542Z,27.80
2022-07-27T09:41:46.215Z,26.40
2022-07-27T09:47:01.109Z,24.80
2022-07-27T09:49:34.709Z,25.00
2022-07-27T09:52:03.163Z,25.40
2022-07-27T09:54:47.045Z,24.70
2022-07-27T09:57:13.866Z,24.40
2022-07-27T09:59:40.488Z,25.10
2022-07-27T10:02:07.535Z,26.50
2022-07-27T10:04:34.323Z,28.40
2022-07-27T10:07:03.705Z,29.10
2022-07-27T10:09:31.324Z,29.60
2022-07-27T10:11:58.346Z,29.40
2022-07-27T10:14:25.602Z,28.50
2022-07-27T10:16:52.514Z,28.50
2022-07-27T10:19:28.259Z,28.20
2022-07-27T10:21:54.880Z,27.20
2022-07-27T10:24:33.811Z,27.30
2022-07-27T10:27:22.474Z,27.90
2022-07-27T10:29:50.314Z,29.30
2022-07-27T10:32:24.554Z,29.50
2022-07-27T10:34:51.237Z,30.20
2022-07-27T10:37:25.003Z,30.50
2022-07-27T10:40:13.504Z,30.20
2022-07-27T10:42:40.242Z,30.60
2022-07-27T10:45:12.278Z,31.60
2022-07-27T10:47:44.855Z,31.90
2022-07-27T10:50:17.745Z,32.30
2022-07-27T10:52:55.580Z,31.40
2022-07-27T10:55:31.390Z,30.00
2022-07-27T10:57:58.897Z,29.70
2022-07-27T11:00:55.145Z,30.60
2022-07-27T11:03:34.740Z,31.20
2022-07-27T11:06:32.083Z,29.90
2022-07-27T11:09:46.362Z,28.10
2022-07-27T11:11:46.190Z,26.40
2022-07-27T11:14:13.190Z,25.90
2022-07-27T11:16:54.817Z,26.00
2022-07-27T11:19:23.829Z,27.40
2022-07-27T11:21:52.379Z,29.50
2022-07-27T11:24:19.171Z,30.00
2022-07-27T11:26:46.911Z,29.30
2022-07-27T11:29:15.890Z,28.80
2022-07-27T11:31:59.168Z,28.20
2022-07-27T11:34:33.878Z,27.80
2022-07-27T11:37:05.394Z,27.30
2022-07-27T11:42:21.062Z,28.10
2022-07-27T11:44:49.926Z,27.90
2022-07-27T11:47:18.449Z,27.40
2022-07-27T11:49:45.141Z,27.20
2022-07-27T11:52:11.913Z,26.70
2022-07-27T11:54:40.013Z,26.30
2022-07-27T11:57:10.171Z,26.30
2022-07-27T11:59:37.798Z,26.00
2022-07-27T12:02:17.562Z,26.00
2022-07-27T12:04:45.303Z,26.00
2022-07-27T12:07:19.877Z,26.90
2022-07-27T12:09:57.577Z,27.50
2022-07-27T12:12:28.285Z,27.30
2022-07-27T12:15:16.664Z,26.60
2022-07-27T12:17:57.543Z,26.40
2022-07-27T12:20:31.239Z,26.10
2022-07-27T12:22:57.842Z,26.20
2022-07-27T12:25:30.485Z,25.90
2022-07-27T12:28:08.257Z,25.90
2022-07-27T12:30:48.962Z,25.60
2022-07-27T12:33:45.187Z,25.60
2022-07-27T12:36:11.825Z,25.70
2022-07-27T12:38:38.826Z,25.60
2022-07-27T12:41:05.648Z,26.00
2022-07-27T12:43:32.277Z,26.10
2022-07-27T12:45:58.968Z,26.30
2022-07-27T12:48:27.638Z,26.50
2022-07-27T12:51:07.218Z,25.80
2022-07-27T12:53:35.073Z,25.50
2022-07-27T12:56:04.626Z,25.80
2022-07-27T12:58:31.261Z,26.10
2022-07-27T13:00:57.933Z,26.30
2022-07-27T13:03:24.596Z,26.40
2022-07-27T13:05:51.215Z,26.90
2022-07-27T13:08:17.830Z,27.30
2022-07-27T13:10:44.852Z,27.40
2022-07-27T13:13:11.732Z,26.80
2022-07-27T13:15:38.421Z,27.10
2022-07-27T13:18:05.147Z,26.70
2022-07-27T13:20:31.896Z,26.30
2022-07-27T13:22:58.605Z,26.20
2022-07-27T13:25:25.226Z,26.00
2022-07-27T13:27:52.189Z,25.90
2022-07-27T13:30:18.866Z,25.70
2022-07-27T13:32:46.838Z,25.70
2022-07-27T13:35:13.991Z,25.80
2022-07-27T13:37:40.933Z,26.80
2022-07-27T13:40:08.883Z,27.40
2022-07-27T13:42:35.804Z,27.90
2022-07-27T13:45:09.154Z,27.90
2022-07-27T13:47:36.560Z,27.80
2022-07-27T13:50:03.730Z,27.50
2022-07-27T13:52:30.431Z,26.90
2022-07-27T13:54:57.128Z,27.10
2022-07-27T13:57:24.013Z,27.90
2022-07-27T13:59:50.706Z,28.60
2022-07-27T14:02:20.481Z,29.20
2022-07-27T14:04:49.998Z,29.40
2022-07-27T14:07:16.969Z,29.60
2022-07-27T14:10:02.243Z,30.00
2022-07-27T14:12:29.074Z,29.90
2022-07-27T14:14:55.727Z,29.50
2022-07-27T14:17:22.912Z,29.20
2022-07-27T14:19:49.522Z,28.60
2022-07-27T14:22:16.160Z,28.20
2022-07-27T14:24:42.788Z,27.80
2022-07-27T14:27:09.393Z,27.00
2022-07-27T14:29:36.032Z,26.30
2022-07-27T14:32:02.741Z,26.20
2022-07-27T14:34:29.516Z,26.60
2022-07-27T14:36:56.127Z,27.20
2022-07-27T14:39:22.902Z,27.70
2022-07-27T14:41:49.588Z,28.00
2022-07-27T14:44:18.222Z,28.10
2022-07-27T14:46:46.078Z,27.60
2022-07-27T14:49:14.499Z,26.90
2022-07-27T14:51:41.282Z,26.40
2022-07-27T14:54:07.986Z,26.30
2022-07-27T14:56:36.325Z,25.70
2022-07-27T14:59:03.400Z,25.50
2022-07-27T15:01:30.136Z,25.00
2022-07-27T15:03:56.863Z,24.90
2022-07-27T15:06:23.482Z,24.70
2022-07-27T15:08:50.103Z,24.50
2022-07-27T15:11:16.745Z,24.40
2022-07-27T15:13:43.379Z,24.50
2022-07-27T15:16:11.248Z,25.10
2022-07-27T15:18:39.047Z,26.10
2022-07-27T15:21:13.079Z,27.20
2022-07-27T15:23:41.839Z,27.80
2022-07-27T15:26:08.498Z,27.70
2022-07-27T15:28:36.237Z,27.20
2022-07-27T15:31:02.958Z,26.80
2022-07-27T15:33:29.628Z,26.20
2022-07-27T15:35:56.417Z,26.60
2022-07-27T15:38:23.055Z,27.20
2022-07-27T15:40:49.689Z,27.50
2022-07-27T15:43:17.118Z,28.50
2022-07-27T15:45:48.230Z,28.80
2022-07-27T15:48:15.754Z,28.70
2022-07-27T15:50:44.562Z,28.10
2022-07-27T15:53:11.317Z,27.80
2022-07-27T15:55:37.992Z,28.20
2022-07-27T15:58:05.254Z,28.00
2022-07-27T16:00:36.952Z,28.40
2022-07-27T16:03:05.986Z,28.30
2022-07-27T16:05:32.929Z,28.00
2022-07-27T16:07:59.609Z,28.00
2022-07-27T16:10:27.300Z,28.20
2022-07-27T16:12:53.921Z,28.00
2022-07-27T16:15:40.527Z,28.00
2022-07-27T16:18:08.605Z,27.80
2022-07-27T16:20:35.206Z,27.60
2022-07-27T16:23:01.802Z,27.40
2022-07-27T16:26:02.524Z,27.50
2022-07-27T16:28:29.762Z,27.60
2022-07-27T16:30:57.745Z,27.60
2022-07-27T16:33:24.482Z,27.00
2022-07-27T16:35:51.134Z,26.70
2022-07-27T16:38:17.766Z,26.30
2022-07-27T16:40:44.489Z,26.50
2022-07-27T16:43:11.087Z,26.20
2022-07-27T16:45:37.743Z,26.10
2022-07-27T16:48:04.605Z,25.70
2022-07-27T16:50:31.311Z,25.60
2022-07-27T16:52:58.028Z,25.60
2022-07-27T16:55:27.386Z,25.30
2022-07-27T16:57:54.461Z,25.00
2022-07-27T17:00:22.494Z,24.80
2022-07-27T17:02:49.175Z,24.60
2022-07-27T17:05:15.959Z,24.30
2022-07-27T17:07:42.887Z,24.20
2022-07-27T17:10:09.873Z,24.10
2022-07-27T17:12:39.110Z,23.80
2022-07-27T17:15:07.105Z,23.60
2022-07-27T17:17:34.155Z,23.50
2022-07-27T17:20:00.853Z,23.20
2022-07-27T17:22:27.526Z,23.00
2022-07-27T17:24:54.142Z,22.70
2022-07-27T17:27:21.795Z,22.60
2022-07-27T17:29:48.505Z,22.40
2022-07-27T17:32:15.213Z,22.20
2022-07-27T17:34:41.857Z,22.20
2022-07-27T17:37:08.479Z,21.90
2022-07-27T17:39:35.462Z,21.80
2022-07-27T17:42:02.269Z,21.70
2022-07-27T17:44:28.925Z,21.50
2022-07-27T17:46:55.580Z,21.50
2022-07-27T17:49:22.388Z,21.30
2022-07-27T17:51:49.028Z,21.20
2022-07-27T17:54:15.676Z,21.20
2022-07-27T17:56:42.297Z,21.10
2022-07-27T17:59:35.176Z,21.00
2022-07-27T18:01:56.667Z,20.90
2022-07-27T18:04:23.514Z,20.80
2022-07-27T18:06:50.268Z,20.70
2022-07-27T18:09:17.222Z,20.60
2022-07-27T18:11:44.442Z,20.60
2022-07-27T18:14:11.076Z,20.50
2022-07-27T18:16:40.703Z,20.40
2022-07-27T18:19:07.810Z,20.30
2022-07-27T18:21:35.295Z,20.20
2022-07-27T18:24:02.390Z,20.20
2022-07-27T18:26:29.002Z,20.10
2022-07-27T18:28:57.757Z,20.10
2022-07-27T18:31:24.545Z,20.00
2022-07-27T18:33:52.523Z,19.90
2022-07-27T18:36:19.745Z,19.90
2022-07-27T18:38:46.406Z,19.90
2022-07-27T18:45:10.422Z,19.80
2022-07-27T18:47:37.149Z,19.80
2022-07-27T18:50:05.075Z,19.80
2022-07-27T18:52:31.704Z,19.60
2022-07-27T18:54:58.297Z,19.50
2022-07-27T18:57:24.903Z,19.20
2022-07-27T18:59:53.329Z,19.10
2022-07-27T19:02:20.545Z,18.90
2022-07-27T19:04:47.294Z,18.70
2022-07-27T19:07:15.698Z,18.60
2022-07-27T19:09:42.572Z,18.50
2022-07-27T19:12:09.869Z,18.40
2022-07-27T19:14:36.898Z,18.30
2022-07-27T19:17:03.657Z,18.20
2022-07-27T19:19:30.832Z,18.10
2022-07-27T19:21:57.657Z,18.00
2022-07-27T19:24:24.266Z,18.00
2022-07-27T19:26:50.892Z,17.80
2022-07-27T19:29:19.680Z,17.80
2022-07-27T19:31:46.326Z,17.70
2022-07-27T19:34:12.937Z,17.60
2022-07-27T19:36:39.559Z,17.50
2022-07-27T19:39:08.910Z,17.50
2022-07-27T19:41:35.799Z,17.40
2022-07-27T19:44:03.168Z,17.20
2022-07-27T19:46:29.834Z,17.10
2022-07-27T19:48:56.659Z,17.10
2022-07-27T19:51:23.334Z,16.90
2022-07-27T19:53:50.186Z,16.90
2022-07-27T19:56:16.969Z,16.70
2022-07-27T19:58:43.639Z,16.80
2022-07-27T20:01:11.511Z,16.70
2022-07-27T20:03:47.406Z,16.80
2022-07-27T20:06:20.724Z,16.70
2022-07-27T20:08:47.928Z,16.70
2022-07-27T20:11:14.526Z,16.50
2022-07-27T20:13:41.158Z,16.40
2022-07-27T20:16:07.787Z,16.40
2022-07-27T20:18:35.530Z,16.30
2022-07-27T20:21:02.294Z,16.20
2022-07-27T20:23:29.181Z,16.20
2022-07-27T20:25:55.968Z,16.10
2022-07-27T20:28:22.570Z,16.10
2022-07-27T20:30:49.307Z,16.00
2022-07-27T20:33:21.113Z,16.00
2022-07-27T20:35:47.739Z,16.00
2022-07-27T20:38:14.353Z,15.80
2022-07-27T20:40:40.974Z,15.80
2022-07-27T20:43:07.590Z,15.70
2022-07-27T20:45:34.227Z,15.70
2022-07-27T20:48:00.982Z,15.70
2022-07-27T20:50:27.613Z,15.60
2022-07-27T20:52:54.286Z,15.60
2022-07-27T20:55:20.957Z,15.70
2022-07-27T20:57:47.682Z,15.60
2022-07-27T21:00:14.641Z,15.50
2022-07-27T21:02:41.438Z,15.40
2022-07-27T21:05:08.933Z,15.40
2022-07-27T21:07:35.979Z,15.30
2022-07-27T21:10:03.233Z,15.20
2022-07-27T21:12:29.904Z,15.10
2022-07-27T21:14:56.505Z,15.10
2022-07-27T21:17:23.466Z,15.00
2022-07-27T21:19:50.096Z,14.90
2022-07-27T21:22:16.697Z,14.90
2022-07-27T21:24:43.289Z,14.80
2022-07-27T21:27:11.494Z,14.80
2022-07-27T21:29:38.658Z,14.90
2022-07-27T21:32:05.466Z,14.90
2022-07-27T21:34:32.127Z,14.90
2022-07-27T21:36:58.753Z,14.90
2022-07-27T21:39:25.390Z,14.80
2022-07-27T21:41:52.022Z,14.80
2022-07-27T21:44:18.689Z,14.90
2022-07-27T21:46:45.384Z,14.90
2022-07-27T21:49:13.159Z,15.00
2022-07-27T21:51:39.905Z,14.80
2022-07-27T21:54:06.689Z,14.90
2022-07-27T21:56:41.166Z,14.90
2022-07-27T21:59:09.128Z,14.90
2022-07-27T22:01:35.878Z,14.80
2022-07-27T22:04:02.610Z,14.90
2022-07-27T22:06:29.283Z,14.70
2022-07-27T22:08:55.900Z,14.70
2022-07-27T22:11:22.650Z,14.70
2022-07-27T22:13:49.262Z,14.60
2022-07-27T22:16:16.016Z,14.70
2022-07-27T22:18:42.653Z,14.60
2022-07-27T22:21:09.264Z,14.60
2022-07-27T22:23:35.884Z,14.60
2022-07-27T22:26:02.509Z,14.60
2022-07-27T22:28:29.118Z,14.50
2022-07-27T22:30:59.846Z,14.50
2022-07-27T22:33:44.530Z,14.50
2022-07-27T22:36:11.876Z,14.50
2022-07-27T22:38:39.106Z,14.30
2022-07-27T22:41:05.697Z,14.30
2022-07-27T22:43:32.306Z,14.30
2022-07-27T22:45:59.021Z,14.20
2022-07-27T22:48:27.099Z,14.20
2022-07-27T22:50:53.720Z,14.00
2022-07-27T22:53:20.328Z,14.00
2022-07-27T22:55:46.984Z,13.90
2022-07-27T22:58:13.605Z,14.10
2022-07-27T23:00:40.330Z,14.00
2022-07-27T23:03:07.271Z,14.00
2022-07-27T23:05:33.905Z,14.00
2022-07-27T23:08:00.525Z,14.00
2022-07-27T23:10:49.998Z,14.00
2022-07-27T23:13:19.858Z,14.00
2022-07-27T23:15:46.729Z,14.00
2022-07-27T23:18:13.575Z,14.00
2022-07-27T23:20:40.834Z,14.00
2022-07-27T23:23:15.386Z,14.20
2022-07-27T23:25:43.304Z,14.10
2022-07-27T23:28:10.090Z,14.10
2022-07-27T23:30:36.829Z,14.00
2022-07-27T23:33:03.481Z,13.90
2022-07-27T23:35:31.418Z,13.90
2022-07-27T23:37:58.087Z,13.90
2022-07-27T23:40:24.865Z,13.90
2022-07-27T23:42:51.540Z,13.90
2022-07-27T23:45:18.165Z,13.80
2022-07-27T23:47:45.145Z,13.80
2022-07-27T23:50:14.043Z,13.80
2022-07-27T23:52:40.714Z,13.80
2022-07-27T23:55:10.379Z,13.80
2022-07-27T23:57:37.008Z,13.90
